Time;durP1;ratioP1;P1;durP2;ratioP2;P2;SDS_P1;SDS_P2;PMS_P1;PMS_P2;Temp;Humidity;BMP_temperature;BMP_pressure;BME280_temperature;BME280_humidity;BME280_pressure;Samples;Min_cycle;Max_cycle;Signal;HPM_P1;HPM_P2
2021/08/12 00:01:22;;;;;;;2.28;1.70;;;19.50;60.60;;;;;;5067672;28;20025;-73
2021/08/12 00:03:50;;;;;;;4.40;2.22;;;19.60;60.70;;;;;;5068204;28;20363;-72
2021/08/12 00:06:17;;;;;;;2.08;1.42;;;19.60;63.60;;;;;;5069259;28;20124;-71
2021/08/12 00:08:45;;;;;;;5.90;1.70;;;19.70;60.30;;;;;;5071721;28;20442;-73
2021/08/12 00:11:12;;;;;;;2.17;1.70;;;19.80;58.00;;;;;;5071787;28;20029;-71
2021/08/12 00:13:40;;;;;;;3.70;1.38;;;19.90;59.20;;;;;;5071091;28;20044;-74
2021/08/12 00:16:07;;;;;;;4.40;1.75;;;19.90;61.60;;;;;;5071231;28;20059;-74
2021/08/12 00:18:34;;;;;;;3.45;1.58;;;20.00;60.60;;;;;;5071600;28;20028;-71
2021/08/12 00:21:02;;;;;;;2.20;1.60;;;20.10;58.60;;;;;;5071298;28;20048;-71
2021/08/12 00:23:29;;;;;;;3.22;1.65;;;20.10;61.00;;;;;;5074851;28;20024;-72
2021/08/12 00:25:57;;;;;;;2.78;1.42;;;20.20;59.90;;;;;;5074149;28;20016;-72
2021/08/12 00:28:25;;;;;;;2.40;1.50;;;20.30;59.60;;;;;;5071343;28;20064;-73
2021/08/12 00:30:52;;;;;;;3.40;1.70;;;20.30;58.30;;;;;;5072315;28;20059;-72
2021/08/12 00:33:19;;;;;;;1.98;1.27;;;20.30;57.40;;;;;;5071561;28;20016;-71
2021/08/12 00:35:48;;;;;;;5.13;1.30;;;20.40;57.20;;;;;;5071851;28;20078;-72
2021/08/12 00:38:16;;;;;;;2.42;1.17;;;20.50;57.00;;;;;;5070055;28;20055;-69
2021/08/12 00:40:44;;;;;;;4.13;1.42;;;20.60;55.40;;;;;;5071275;28;21156;-75
2021/08/12 00:43:12;;;;;;;1.30;1.00;;;20.60;56.10;;;;;;5071386;28;20363;-71
2021/08/12 00:45:39;;;;;;;1.80;1.50;;;20.60;55.00;;;;;;5071404;28;20633;-73
2021/08/12 00:48:07;;;;;;;6.63;1.73;;;20.70;59.40;;;;;;5071414;28;20082;-73
2021/08/12 00:50:37;;;;;;;3.80;1.80;;;20.70;57.50;;;;;;5072209;28;20039;-74
2021/08/12 00:53:04;;;;;;;2.30;1.42;;;20.70;55.40;;;;;;5071022;28;20016;-72
2021/08/12 00:55:32;;;;;;;1.90;1.20;;;20.80;55.30;;;;;;5070053;28;20090;-72
2021/08/12 00:58:00;;;;;;;1.83;1.60;;;20.80;59.20;;;;;;5070561;28;20082;-72
2021/08/12 01:00:27;;;;;;;2.53;1.38;;;20.80;56.60;;;;;;5071022;28;20065;-74
2021/08/12 01:02:55;;;;;;;2.47;1.27;;;20.80;57.40;;;;;;5070940;28;20098;-73
2021/08/12 01:05:22;;;;;;;2.42;1.30;;;20.90;57.00;;;;;;5070440;28;20037;-67
2021/08/12 01:08:22;;;;;;;1.50;1.15;;;21.00;54.90;;;;;;5070360;28;20013;-72
2021/08/12 01:11:26;;;;;;;1.95;1.17;;;21.00;57.80;;;;;;5069433;28;20466;-75
2021/08/12 01:14:11;;;;;;;4.05;1.42;;;21.10;54.40;;;;;;5070919;28;20028;-73
2021/08/12 01:16:46;;;;;;;1.10;1.00;;;21.20;57.40;;;;;;5070457;28;20140;-73
2021/08/12 01:19:45;;;;;;;2.00;1.25;;;21.10;59.00;;;;;;5069908;28;20029;-74
2021/08/12 01:22:17;;;;;;;1.88;1.23;;;21.20;58.30;;;;;;5070390;28;20028;-72
2021/08/12 01:24:47;;;;;;;;;;;21.30;55.20;;;;;;5069464;28;20132;-72
2021/08/12 01:27:17;;;;;;;3.45;1.23;;;21.40;56.50;;;;;;5070618;28;20003;-73
2021/08/12 01:30:10;;;;;;;1.42;1.30;;;21.40;55.30;;;;;;5070466;28;20132;-70
2021/08/12 01:33:10;;;;;;;3.25;1.05;;;21.50;56.80;;;;;;5070493;28;20081;-72
2021/08/12 01:35:39;;;;;;;3.00;1.20;;;21.50;53.80;;;;;;5070004;28;20032;-71
2021/08/12 01:38:17;;;;;;;1.52;1.10;;;21.50;53.80;;;;;;5069617;28;20104;-74
2021/08/12 01:40:46;;;;;;;4.68;1.02;;;21.60;54.10;;;;;;5070016;28;20031;-73
2021/08/12 01:43:21;;;;;;;3.10;1.20;;;21.70;56.00;;;;;;5069841;28;20063;-73
2021/08/12 01:45:57;;;;;;;1.23;1.10;;;21.80;54.10;;;;;;5070061;28;20483;-75
2021/08/12 01:48:26;;;;;;;1.92;1.10;;;21.70;57.20;;;;;;5066732;28;20478;-70
2021/08/12 01:50:56;;;;;;;1.48;1.00;;;21.70;56.60;;;;;;5068874;28;20086;-70
2021/08/12 01:53:24;;;;;;;3.70;0.90;;;21.90;54.60;;;;;;5068163;28;20035;-73
2021/08/12 01:55:52;;;;;;;0.85;0.82;;;22.00;53.50;;;;;;5068378;28;20025;-67
2021/08/12 01:58:23;;;;;;;1.77;1.52;;;22.00;55.20;;;;;;5066674;28;20033;-72
2021/08/12 02:00:52;;;;;;;7.30;1.30;;;22.10;56.70;;;;;;5067885;28;20618;-68
2021/08/12 02:03:21;;;;;;;5.60;1.25;;;22.10;50.60;;;;;;5067256;28;20268;-69
2021/08/12 02:05:50;;;;;;;2.47;1.30;;;22.10;55.60;;;;;;5066360;28;20516;-73
2021/08/12 02:08:51;;;;;;;1.65;1.00;;;22.20;57.00;;;;;;5068971;28;20033;-66
2021/08/12 02:11:20;;;;;;;1.30;1.08;;;22.30;55.30;;;;;;5064606;28;20032;-68
2021/08/12 02:13:47;;;;;;;1.60;0.82;;;22.30;55.90;;;;;;5068232;28;20035;-72
2021/08/12 02:16:18;;;;;;;1.05;0.90;;;22.40;52.30;;;;;;5066453;28;20060;-69
2021/08/12 02:18:46;;;;;;;2.15;1.10;;;22.40;55.00;;;;;;5066838;28;20031;-64
2021/08/12 02:21:35;;;;;;;1.42;1.00;;;22.50;55.60;;;;;;5068090;28;20016;-64
2021/08/12 02:24:13;;;;;;;2.03;1.20;;;22.50;53.50;;;;;;5061721;28;20012;-67
2021/08/12 02:27:00;;;;;;;1.00;0.80;;;22.60;53.60;;;;;;5066614;28;20150;-70
2021/08/12 02:29:35;;;;;;;0.63;0.57;;;22.60;56.00;;;;;;5064964;28;20053;-67
2021/08/12 02:32:08;;;;;;;3.30;0.80;;;22.70;52.00;;;;;;5068673;28;20074;-68
2021/08/12 02:34:38;;;;;;;3.90;1.35;;;22.80;52.50;;;;;;5063494;28;20012;-66
2021/08/12 02:37:19;;;;;;;1.90;0.80;;;22.80;54.50;;;;;;5068589;28;20020;-64
2021/08/12 02:39:49;;;;;;;2.67;1.02;;;22.90;50.30;;;;;;5067423;28;20020;-71
2021/08/12 02:42:17;;;;;;;1.67;1.00;;;22.90;52.10;;;;;;5068417;28;20103;-71
2021/08/12 02:44:47;;;;;;;0.85;0.68;;;22.90;51.80;;;;;;5065221;28;20028;-72
2021/08/12 02:47:16;;;;;;;1.20;0.88;;;23.00;52.60;;;;;;5068235;28;20028;-70
2021/08/12 02:49:46;;;;;;;1.23;0.90;;;23.00;56.00;;;;;;5067625;28;20529;-67
2021/08/12 02:52:19;;;;;;;0.82;0.68;;;23.00;55.10;;;;;;5068553;28;20027;-68
2021/08/12 02:54:49;;;;;;;0.95;0.75;;;23.10;49.70;;;;;;5062790;28;20501;-66
2021/08/12 02:57:18;;;;;;;5.38;1.25;;;23.10;50.10;;;;;;5067018;28;20024;-68
2021/08/12 02:59:48;;;;;;;4.97;1.80;;;23.30;46.40;;;;;;5067259;28;20027;-67
2021/08/12 03:02:18;;;;;;;2.58;0.88;;;23.40;41.10;;;;;;5068335;28;20020;-67
2021/08/12 03:04:46;;;;;;;1.48;0.90;;;23.40;43.60;;;;;;5063442;28;20032;-66
2021/08/12 03:07:17;;;;;;;4.75;0.90;;;23.10;53.20;;;;;;5068045;28;20552;-68
2021/08/12 03:09:49;;;;;;;4.38;0.80;;;23.00;52.20;;;;;;5066089;28;20040;-75
2021/08/12 03:12:21;;;;;;;2.65;0.82;;;23.00;51.70;;;;;;5068549;28;20031;-67
2021/08/12 03:14:52;;;;;;;2.92;0.75;;;23.10;51.70;;;;;;5068371;28;20028;-65
2021/08/12 03:17:21;;;;;;;1.83;1.15;;;23.10;50.90;;;;;;5068758;28;20359;-65
2021/08/12 03:19:49;;;;;;;9.02;1.20;;;23.10;50.70;;;;;;5067507;28;20045;-70
2021/08/12 03:22:17;;;;;;;4.28;1.20;;;23.20;49.30;;;;;;5059396;28;20021;-72
2021/08/12 03:24:46;;;;;;;2.22;1.00;;;23.20;50.20;;;;;;5067959;28;20077;-66
2021/08/12 03:27:16;;;;;;;3.17;0.55;;;23.30;53.60;;;;;;5066016;28;20035;-68
2021/08/12 03:29:46;;;;;;;1.88;0.80;;;23.40;51.30;;;;;;5066203;28;20063;-61
2021/08/12 03:32:13;;;;;;;3.45;0.73;;;23.40;48.70;;;;;;5066390;28;20035;-67
2021/08/12 03:34:41;;;;;;;1.48;0.73;;;23.50;53.20;;;;;;5067453;28;20016;-66
2021/08/12 03:37:09;;;;;;;3.28;0.73;;;23.60;49.10;;;;;;5064545;28;20028;-68
2021/08/12 03:39:36;;;;;;;2.72;1.10;;;23.70;52.70;;;;;;5069248;28;20021;-67
2021/08/12 03:42:05;;;;;;;3.28;0.80;;;23.70;50.70;;;;;;5066347;28;20493;-69
2021/08/12 03:44:32;;;;;;;1.00;0.63;;;23.70;48.20;;;;;;5067153;28;20041;-68
2021/08/12 03:47:00;;;;;;;0.90;0.60;;;23.60;50.00;;;;;;5063538;28;20028;-64
2021/08/12 03:49:28;;;;;;;1.90;0.80;;;23.80;49.90;;;;;;5067016;28;20147;-61
2021/08/12 03:51:56;;;;;;;1.42;0.70;;;23.80;52.60;;;;;;5065771;28;20025;-64
2021/08/12 03:54:24;;;;;;;1.30;0.65;;;23.90;50.30;;;;;;5065542;28;20111;-68
2021/08/12 03:56:52;;;;;;;4.28;1.00;;;23.90;52.00;;;;;;5060708;28;20074;-64
2021/08/12 03:59:21;;;;;;;1.48;0.80;;;24.10;50.60;;;;;;5066974;28;20020;-64
2021/08/12 04:01:50;;;;;;;4.65;0.95;;;24.20;52.30;;;;;;5062416;28;20025;-63
2021/08/12 04:04:17;;;;;;;1.88;0.47;;;24.20;51.50;;;;;;5066404;28;20428;-61
2021/08/12 04:06:45;;;;;;;0.80;0.57;;;24.30;48.90;;;;;;5061834;28;20159;-66
2021/08/12 04:09:13;;;;;;;1.40;0.47;;;24.30;48.80;;;;;;5065403;28;20554;-62
2021/08/12 04:11:40;;;;;;;3.40;1.00;;;24.40;50.80;;;;;;5066056;28;20098;-66
2021/08/12 04:14:08;;;;;;;2.00;0.80;;;24.30;49.60;;;;;;5066088;28;20084;-64
2021/08/12 04:16:36;;;;;;;5.97;0.90;;;24.50;51.50;;;;;;5062777;28;20016;-63
2021/08/12 04:19:04;;;;;;;3.33;0.70;;;24.50;51.40;;;;;;5066906;28;20032;-64
2021/08/12 04:21:32;;;;;;;3.72;0.77;;;24.40;52.40;;;;;;5065679;28;20483;-61
2021/08/12 04:24:00;;;;;;;0.65;0.50;;;24.50;51.10;;;;;;5066307;28;20040;-68
2021/08/12 04:26:28;;;;;;;1.85;0.75;;;24.50;49.30;;;;;;5062409;28;20028;-67
2021/08/12 04:28:56;;;;;;;1.25;0.50;;;24.60;50.60;;;;;;5066638;28;20101;-66
2021/08/12 04:31:28;;;;;;;3.35;0.75;;;24.60;52.80;;;;;;5065820;28;20032;-64
2021/08/12 04:33:55;;;;;;;8.00;0.85;;;24.60;52.10;;;;;;5065724;28;20375;-66
2021/08/12 04:36:23;;;;;;;1.25;0.40;;;24.60;50.60;;;;;;5061593;28;20033;-64
2021/08/12 04:39:03;;;;;;;1.02;0.30;;;24.60;50.50;;;;;;5068679;28;20025;-63
2021/08/12 04:41:31;;;;;;;3.13;0.60;;;24.60;47.20;;;;;;5066123;28;20031;-70
2021/08/12 04:43:59;;;;;;;1.05;0.70;;;24.60;49.90;;;;;;5062143;28;20490;-67
2021/08/12 04:46:27;;;;;;;0.85;0.60;;;24.70;50.10;;;;;;5062182;28;20028;-64
2021/08/12 04:48:55;;;;;;;5.20;0.75;;;24.90;48.60;;;;;;5066281;28;20024;-64
2021/08/12 04:51:23;;;;;;;7.88;0.43;;;24.80;47.60;;;;;;5065470;28;20062;-63
2021/08/12 04:57:39;;;;;;;1.10;0.57;;;24.90;46.40;;;;;;5065348;28;20079;-65
2021/08/12 05:00:07;;;;;;;0.38;0.32;;;25.00;50.70;;;;;;4988418;28;20125;-63
2021/08/12 05:02:35;;;;;;;2.25;0.60;;;24.90;51.20;;;;;;5050252;28;20040;-63
2021/08/12 05:05:03;;;;;;;1.45;0.50;;;24.90;47.70;;;;;;5066094;28;20025;-61
2021/08/12 05:07:30;;;;;;;4.68;0.77;;;24.90;46.00;;;;;;5069075;28;20020;-64
2021/08/12 05:09:58;;;;;;;0.90;0.50;;;25.00;45.00;;;;;;5070298;28;20103;-62
2021/08/12 05:12:26;;;;;;;3.08;1.75;;;24.80;51.60;;;;;;5069781;28;20467;-66
2021/08/12 05:14:54;;;;;;;1.58;0.73;;;25.00;49.50;;;;;;5068807;28;20419;-64
2021/08/12 05:17:21;;;;;;;2.33;0.77;;;25.00;49.30;;;;;;5066125;28;20025;-63
2021/08/12 05:19:49;;;;;;;4.18;0.90;;;25.00;47.80;;;;;;5070331;28;20060;-65
2021/08/12 05:22:23;;;;;;;0.73;0.50;;;25.00;49.60;;;;;;5068926;28;20111;-65
2021/08/12 05:24:51;;;;;;;1.98;0.80;;;24.90;49.70;;;;;;5068734;28;20107;-71
2021/08/12 05:27:19;;;;;;;1.08;0.20;;;25.10;49.40;;;;;;5065157;28;20025;-71
2021/08/12 05:29:47;;;;;;;1.58;0.80;;;25.00;48.70;;;;;;5070422;28;20572;-70
2021/08/12 05:32:15;;;;;;;1.20;0.60;;;25.00;51.30;;;;;;5069044;28;20166;-65
2021/08/12 05:34:42;;;;;;;4.03;0.45;;;24.90;50.50;;;;;;5068920;28;20032;-67
2021/08/12 05:37:10;;;;;;;3.90;0.52;;;24.90;46.40;;;;;;5061287;28;20155;-68
2021/08/12 05:39:41;;;;;;;8.48;2.58;;;24.90;50.30;;;;;;5070622;28;20073;-65
2021/08/12 05:42:09;;;;;;;1.85;0.80;;;24.80;42.80;;;;;;5067303;28;20497;-63
2021/08/12 05:44:36;;;;;;;5.15;1.00;;;24.60;43.50;;;;;;5066577;28;20427;-54
2021/08/12 05:47:04;;;;;;;3.03;0.70;;;24.50;44.40;;;;;;5062461;28;20061;-62
2021/08/12 05:49:32;;;;;;;1.10;0.60;;;24.40;42.20;;;;;;5068645;28;20502;-62
2021/08/12 05:52:00;;;;;;;1.40;0.70;;;24.30;44.80;;;;;;5068598;28;20041;-63
2021/08/12 05:54:29;;;;;;;2.65;0.98;;;24.40;45.90;;;;;;5067323;28;20016;-65
2021/08/12 05:56:57;;;;;;;3.33;0.85;;;24.30;44.70;;;;;;5061871;28;20471;-58
2021/08/12 05:59:25;;;;;;;3.75;0.80;;;24.30;44.90;;;;;;5067494;28;20021;-60
2021/08/12 06:01:56;;;;;;;3.10;0.75;;;24.40;45.10;;;;;;5067648;28;20029;-59
2021/08/12 06:04:24;;;;;;;5.72;1.35;;;24.30;44.60;;;;;;5066826;28;20030;-63
2021/08/12 06:06:52;;;;;;;2.83;0.95;;;24.30;45.10;;;;;;5060308;28;20095;-63
2021/08/12 06:09:20;;;;;;;1.65;0.52;;;24.30;42.40;;;;;;5067648;28;20092;-61
2021/08/12 06:11:52;;;;;;;5.15;0.80;;;24.20;42.80;;;;;;5068056;28;20024;-57
2021/08/12 06:14:23;;;;;;;4.22;0.50;;;24.10;45.50;;;;;;5067161;28;20539;-61
2021/08/12 06:16:50;;;;;;;3.57;0.83;;;24.10;45.10;;;;;;5059815;28;20368;-53
2021/08/12 06:19:18;;;;;;;4.97;2.28;;;24.10;45.80;;;;;;5049997;28;20277;-63
2021/08/12 06:21:45;;;;;;;6.75;2.88;;;23.90;45.50;;;;;;5067836;28;20055;-64
2021/08/12 06:24:14;;;;;;;3.60;1.88;;;23.90;46.80;;;;;;5066752;28;20070;-63
2021/08/12 06:26:44;;;;;;;8.25;1.80;;;23.80;46.40;;;;;;5059518;28;20032;-60
2021/08/12 06:29:12;;;;;;;5.10;1.73;;;23.70;44.90;;;;;;5067657;28;20084;-63
2021/08/12 06:31:41;;;;;;;5.55;3.47;;;23.60;45.50;;;;;;5067906;28;20024;-59
2021/08/12 06:34:08;;;;;;;10.88;2.33;;;23.50;45.90;;;;;;5062054;28;20120;-60
2021/08/12 06:36:36;;;;;;;4.93;2.58;;;23.40;46.40;;;;;;5056248;28;20526;-63
2021/08/12 06:39:04;;;;;;;4.60;2.90;;;23.20;46.90;;;;;;5067073;28;20056;-63
2021/08/12 06:41:32;;;;;;;4.60;3.35;;;22.80;49.50;;;;;;5068507;28;20056;-64
2021/08/12 06:43:59;;;;;;;3.38;2.40;;;22.30;51.30;;;;;;5068868;28;20556;-64
2021/08/12 06:46:27;;;;;;;4.75;2.63;;;22.00;51.60;;;;;;5066985;28;20124;-62
2021/08/12 06:48:55;;;;;;;3.53;2.55;;;21.80;52.60;;;;;;5068507;28;20126;-64
2021/08/12 06:51:22;;;;;;;7.45;3.10;;;21.60;53.10;;;;;;5068614;28;20063;-62
2021/08/12 06:53:50;;;;;;;3.92;3.05;;;21.40;54.40;;;;;;5068737;28;20056;-62
2021/08/12 06:56:17;;;;;;;3.55;2.75;;;21.30;55.00;;;;;;5069377;28;20420;-68
2021/08/12 06:58:45;;;;;;;7.22;3.80;;;21.20;55.00;;;;;;5068322;28;20190;-62
2021/08/12 07:01:12;;;;;;;7.30;3.72;;;21.00;55.40;;;;;;5068451;28;20394;-62
2021/08/12 07:03:40;;;;;;;6.00;4.57;;;20.90;54.30;;;;;;5066757;28;20032;-62
2021/08/12 07:06:08;;;;;;;5.15;3.70;;;20.80;55.80;;;;;;5067417;28;20745;-62
2021/08/12 07:08:36;;;;;;;5.43;4.95;;;20.80;56.30;;;;;;5068012;28;20035;-63
2021/08/12 07:11:04;;;;;;;5.30;4.85;;;20.60;56.30;;;;;;5068274;28;20035;-65
2021/08/12 07:13:32;;;;;;;5.55;4.25;;;20.60;55.80;;;;;;5067846;28;20463;-62
2021/08/12 07:16:00;;;;;;;4.97;3.72;;;20.50;55.70;;;;;;5067543;28;20029;-63
2021/08/12 07:18:27;;;;;;;6.90;4.35;;;20.50;54.50;;;;;;5068100;28;20054;-64
2021/08/12 07:20:55;;;;;;;5.35;4.45;;;20.40;56.40;;;;;;5068008;28;20026;-65
2021/08/12 07:23:23;;;;;;;9.45;3.80;;;20.30;57.00;;;;;;5068424;28;20024;-63
2021/08/12 07:25:50;;;;;;;5.00;3.78;;;20.20;56.40;;;;;;5068540;28;20056;-65
2021/08/12 07:28:18;;;;;;;4.88;3.85;;;20.20;56.70;;;;;;5068196;28;20044;-65
2021/08/12 07:30:46;;;;;;;3.90;3.00;;;20.20;57.40;;;;;;5068349;28;20086;-64
2021/08/12 07:33:13;;;;;;;5.28;3.70;;;20.10;56.80;;;;;;5068189;28;20532;-63
2021/08/12 07:35:41;;;;;;;5.55;3.95;;;20.00;57.40;;;;;;5067657;28;20036;-61
2021/08/12 07:38:09;;;;;;;5.20;4.80;;;20.00;58.00;;;;;;5068071;28;20029;-63
2021/08/12 07:40:37;;;;;;;5.10;3.67;;;19.90;58.70;;;;;;5068184;28;20032;-63
2021/08/12 07:43:04;;;;;;;4.85;3.50;;;19.80;59.00;;;;;;5067920;28;20537;-64
2021/08/12 07:45:32;;;;;;;4.97;4.22;;;19.80;59.20;;;;;;5067309;28;20017;-63
2021/08/12 07:47:59;;;;;;;3.75;3.05;;;19.70;59.10;;;;;;5066279;28;20056;-64
2021/08/12 07:50:27;;;;;;;6.38;2.90;;;19.70;58.20;;;;;;5067347;28;20075;-64
2021/08/12 07:52:55;;;;;;;9.02;3.80;;;19.70;57.90;;;;;;5068034;28;20109;-68
2021/08/12 07:55:22;;;;;;;6.75;3.78;;;19.60;56.80;;;;;;5069056;28;20025;-68
2021/08/12 07:57:53;;;;;;;3.95;3.40;;;19.60;57.80;;;;;;5067297;28;20052;-67
2021/08/12 08:00:20;;;;;;;4.95;3.25;;;19.60;58.20;;;;;;5068212;28;20478;-66
2021/08/12 08:02:51;;;;;;;4.47;3.40;;;19.60;57.80;;;;;;5068118;28;20055;-68
2021/08/12 08:05:21;;;;;;;4.85;3.10;;;19.50;58.70;;;;;;5066192;28;20094;-71
2021/08/12 08:07:50;;;;;;;9.57;2.65;;;19.50;58.00;;;;;;5060125;28;20032;-67
2021/08/12 08:10:20;;;;;;;6.13;2.80;;;19.50;58.30;;;;;;5068113;28;20092;-71
2021/08/12 08:12:47;;;;;;;5.22;2.67;;;19.40;59.30;;;;;;5064512;28;20082;-72
2021/08/12 08:15:17;;;;;;;4.43;2.67;;;19.40;58.70;;;;;;5067040;28;20467;-70
2021/08/12 08:17:44;;;;;;;4.93;2.67;;;19.40;58.30;;;;;;5065883;28;20025;-72
2021/08/12 08:20:14;;;;;;;3.40;2.63;;;19.40;58.40;;;;;;5065948;28;20021;-67
2021/08/12 08:22:42;;;;;;;4.82;2.83;;;19.40;58.70;;;;;;5064561;28;20024;-66
2021/08/12 08:25:10;;;;;;;7.07;4.43;;;19.40;59.10;;;;;;5066882;28;20086;-67
2021/08/12 08:27:38;;;;;;;10.55;5.90;;;19.40;59.20;;;;;;5067081;28;20352;-69
2021/08/12 08:30:06;;;;;;;11.05;6.35;;;19.30;59.00;;;;;;5071258;28;20055;-72
2021/08/12 08:32:34;;;;;;;12.45;6.47;;;19.30;58.10;;;;;;5068920;28;20632;-69
2021/08/12 08:35:03;;;;;;;8.15;5.75;;;19.30;59.10;;;;;;5074000;28;20102;-72
2021/08/12 08:37:30;;;;;;;7.53;4.72;;;19.30;58.50;;;;;;5074201;28;20398;-72
2021/08/12 08:39:57;;;;;;;7.80;4.47;;;19.20;58.70;;;;;;5073471;28;20111;-74
2021/08/12 08:42:25;;;;;;;9.40;5.45;;;19.20;59.10;;;;;;5071263;28;20094;-76
2021/08/12 08:44:57;;;;;;;8.50;4.97;;;19.10;59.90;;;;;;5071015;28;20578;-75
2021/08/12 08:47:25;;;;;;;6.60;4.18;;;19.10;58.30;;;;;;5071116;28;20108;-73
2021/08/12 08:49:55;;;;;;;7.05;4.07;;;19.00;59.70;;;;;;5070817;28;21954;-72
2021/08/12 08:52:24;;;;;;;5.65;4.05;;;19.00;59.90;;;;;;5070927;28;20025;-69
2021/08/12 08:54:53;;;;;;;7.13;4.05;;;18.90;60.00;;;;;;5071031;28;20082;-70
2021/08/12 08:57:21;;;;;;;7.32;4.50;;;18.90;60.00;;;;;;5069102;28;20028;-73
2021/08/12 08:59:48;;;;;;;9.95;5.57;;;18.90;60.20;;;;;;5070579;28;20024;-72
2021/08/12 09:02:16;;;;;;;18.50;7.53;;;18.80;59.90;;;;;;5070191;28;20027;-72
2021/08/12 09:04:43;;;;;;;22.60;9.40;;;18.80;60.00;;;;;;5070530;28;20017;-73
2021/08/12 09:07:11;;;;;;;38.22;15.05;;;18.80;60.00;;;;;;5071909;28;20028;-77
2021/08/12 09:09:39;;;;;;;60.47;29.52;;;18.70;59.10;;;;;;5067606;28;20058;-70
2021/08/12 09:12:07;;;;;;;122.93;60.90;;;18.70;58.90;;;;;;5066093;28;20028;-68
2021/08/12 09:14:39;;;;;;;157.02;81.38;;;18.70;60.30;;;;;;5070520;28;20013;-68
2021/08/12 09:17:26;;;;;;;143.25;74.72;;;18.70;60.80;;;;;;5072095;28;20016;-65
2021/08/12 09:20:15;;;;;;;156.30;81.28;;;18.70;60.50;;;;;;5065483;28;20028;-64
2021/08/12 09:22:51;;;;;;;171.68;88.53;;;18.70;60.50;;;;;;5067812;28;20079;-68
2021/08/12 09:25:39;;;;;;;194.13;104.50;;;18.60;60.50;;;;;;5065158;28;20437;-68
2021/08/12 09:28:19;;;;;;;192.10;100.95;;;18.70;60.90;;;;;;5071619;28;20070;-70
2021/08/12 09:31:06;;;;;;;199.15;107.95;;;18.60;60.70;;;;;;5066388;28;20051;-64
2021/08/12 09:33:53;;;;;;;193.43;104.85;;;18.60;60.80;;;;;;5066528;28;20039;-68
2021/08/12 09:36:38;;;;;;;195.30;112.55;;;18.60;60.90;;;;;;5065349;28;20744;-67
2021/08/12 09:39:19;;;;;;;211.10;112.72;;;18.60;60.70;;;;;;5066062;28;20036;-68
2021/08/12 09:41:59;;;;;;;201.32;112.05;;;18.60;61.00;;;;;;5066428;28;20032;-67
2021/08/12 09:44:52;;;;;;;218.27;117.65;;;18.60;60.50;;;;;;5064092;28;20025;-64
2021/08/12 09:47:19;;;;;;;199.32;114.32;;;18.60;61.10;;;;;;5069862;28;20044;-62
2021/08/12 09:49:59;;;;;;;209.82;119.18;;;18.60;61.10;;;;;;5067448;28;20119;-65
2021/08/12 09:52:33;;;;;;;210.10;113.50;;;18.60;61.20;;;;;;5068730;28;20028;-63
2021/08/12 09:55:13;;;;;;;208.82;118.40;;;18.60;60.80;;;;;;5070746;28;20032;-68
2021/08/12 09:57:52;;;;;;;211.52;115.97;;;18.50;61.10;;;;;;5069130;28;20024;-68
2021/08/12 10:00:30;;;;;;;191.52;109.05;;;18.50;61.60;;;;;;5066198;28;20047;-69
2021/08/12 10:03:01;;;;;;;192.95;112.53;;;18.50;61.90;;;;;;5071537;28;20024;-66
2021/08/12 10:05:30;;;;;;;209.23;116.13;;;18.50;61.50;;;;;;5071427;28;20028;-70
2021/08/12 10:07:59;;;;;;;213.80;117.43;;;18.50;61.60;;;;;;5070819;28;20036;-68
2021/08/12 10:10:30;;;;;;;208.95;115.70;;;18.40;61.90;;;;;;5064431;28;20042;-68
2021/08/12 10:13:00;;;;;;;207.30;117.22;;;18.50;61.90;;;;;;5071047;28;20024;-69
2021/08/12 10:15:34;;;;;;;203.60;115.63;;;18.40;61.90;;;;;;5071726;28;20025;-64
2021/08/12 10:18:03;;;;;;;198.25;111.70;;;18.40;61.90;;;;;;5067519;28;20062;-67
2021/08/12 10:20:53;;;;;;;193.73;112.63;;;18.40;61.50;;;;;;5065376;28;20028;-65
2021/08/12 10:23:29;;;;;;;210.23;114.80;;;18.40;61.60;;;;;;5069835;28;20025;-70
2021/08/12 10:26:01;;;;;;;192.90;111.43;;;18.40;61.60;;;;;;5068243;28;20036;-70
2021/08/12 10:28:32;;;;;;;196.60;110.22;;;18.30;61.80;;;;;;5067773;28;20045;-68
2021/08/12 10:31:06;;;;;;;196.85;109.43;;;18.30;61.80;;;;;;5066677;28;20047;-69
2021/08/12 10:33:35;;;;;;;197.35;110.57;;;18.30;62.00;;;;;;5068183;28;20078;-69
2021/08/12 10:36:04;;;;;;;189.32;108.78;;;18.30;61.90;;;;;;5070294;28;20142;-76
2021/08/12 10:38:31;;;;;;;187.20;109.43;;;18.30;62.10;;;;;;5069918;28;20025;-72
2021/08/12 10:40:59;;;;;;;178.75;105.15;;;18.30;62.00;;;;;;5069723;28;20032;-71
2021/08/12 10:43:29;;;;;;;182.60;107.20;;;18.30;62.00;;;;;;5071181;28;20102;-71
2021/08/12 10:45:58;;;;;;;183.35;106.32;;;18.20;62.10;;;;;;5068630;28;20071;-71
2021/08/12 10:48:28;;;;;;;178.43;105.40;;;18.20;62.10;;;;;;5069094;28;20486;-76
2021/08/12 10:51:12;;;;;;;178.98;105.05;;;18.20;62.40;;;;;;5068520;28;20032;-71
2021/08/12 10:53:44;;;;;;;180.05;101.63;;;18.20;62.30;;;;;;5069185;28;20557;-72
2021/08/12 10:56:12;;;;;;;;;;;18.10;62.50;;;;;;5070184;28;20029;-73
2021/08/12 10:58:50;;;;;;;172.82;100.90;;;18.00;62.40;;;;;;5069174;28;20334;-74
2021/08/12 11:01:41;;;;;;;167.05;100.35;;;18.00;62.80;;;;;;5069869;28;20021;-70
2021/08/12 11:04:09;;;;;;;176.70;99.85;;;18.00;62.90;;;;;;5070236;28;20530;-72
2021/08/12 11:06:46;;;;;;;171.32;102.13;;;18.00;63.00;;;;;;5067684;28;20074;-69
2021/08/12 11:09:16;;;;;;;178.00;100.45;;;17.90;63.00;;;;;;5069130;28;20025;-69
2021/08/12 11:11:43;;;;;;;175.05;101.00;;;17.90;63.00;;;;;;5069056;28;20107;-69
2021/08/12 11:14:14;;;;;;;170.27;100.00;;;17.80;63.10;;;;;;5064878;28;20025;-72
2021/08/12 11:16:42;;;;;;;169.15;98.03;;;17.80;63.20;;;;;;5066868;28;20024;-70
2021/08/12 11:19:31;;;;;;;168.10;96.57;;;17.80;63.20;;;;;;5061838;28;20020;-72
2021/08/12 11:21:59;;;;;;;164.63;98.38;;;17.80;63.60;;;;;;5067392;28;20040;-73
2021/08/12 11:24:26;;;;;;;167.20;95.70;;;17.80;63.90;;;;;;5067534;28;20051;-69
2021/08/12 11:26:57;;;;;;;156.85;92.22;;;17.80;63.90;;;;;;5068659;28;20078;-70
2021/08/12 11:29:57;;;;;;;160.40;92.45;;;17.70;64.00;;;;;;5062508;28;20726;-70
2021/08/12 11:32:18;;;;;;;170.73;96.55;;;17.70;64.00;;;;;;5062784;28;20025;-66
2021/08/12 11:34:52;;;;;;;158.82;94.82;;;17.70;64.20;;;;;;5066703;28;20136;-69
2021/08/12 11:37:19;;;;;;;152.20;88.22;;;17.70;64.50;;;;;;5069625;28;20020;-71
2021/08/12 11:40:11;;;;;;;155.20;89.57;;;17.70;64.60;;;;;;5063649;28;20037;-71
2021/08/12 11:42:55;;;;;;;151.20;89.77;;;17.60;64.70;;;;;;5068314;28;20383;-73
2021/08/12 11:45:23;;;;;;;152.43;88.03;;;17.70;64.80;;;;;;5065247;28;20116;-71
2021/08/12 11:47:58;;;;;;;148.27;86.30;;;17.60;64.90;;;;;;5067410;28;20020;-72
2021/08/12 11:50:30;;;;;;;142.80;86.70;;;17.60;65.00;;;;;;5061978;28;20033;-73
2021/08/12 11:52:58;;;;;;;144.15;81.70;;;17.60;64.90;;;;;;5065927;28;20033;-72
2021/08/12 11:55:26;;;;;;;138.27;79.38;;;17.60;65.10;;;;;;5066748;28;20114;-73
2021/08/12 11:57:54;;;;;;;129.60;79.72;;;17.60;65.00;;;;;;5065958;28;20036;-73
2021/08/12 12:00:28;;;;;;;126.35;76.97;;;17.60;65.10;;;;;;5060896;28;20024;-72
2021/08/12 12:03:00;;;;;;;128.48;79.22;;;17.60;65.20;;;;;;5073104;28;20028;-72
2021/08/12 12:05:54;;;;;;;128.55;76.25;;;17.50;65.20;;;;;;5071241;28;20475;-72
2021/08/12 12:08:28;;;;;;;125.78;74.72;;;17.60;65.30;;;;;;5066640;28;20040;-72
2021/08/12 12:11:11;;;;;;;129.15;77.75;;;17.50;65.10;;;;;;5069538;28;20029;-72
2021/08/12 12:13:38;;;;;;;137.27;77.38;;;17.50;65.20;;;;;;5073316;28;20016;-72
2021/08/12 12:16:10;;;;;;;121.00;75.97;;;17.50;65.30;;;;;;5071086;28;20224;-69
2021/08/12 12:18:43;;;;;;;124.53;75.65;;;17.50;65.50;;;;;;5069719;28;20117;-71
2021/08/12 12:21:12;;;;;;;113.18;68.57;;;17.50;65.70;;;;;;5071598;28;20032;-73
2021/08/12 12:23:48;;;;;;;117.97;69.30;;;17.50;65.80;;;;;;5070172;28;20382;-70
2021/08/12 12:26:21;;;;;;;114.80;67.05;;;17.50;65.80;;;;;;5071736;28;20028;-72
2021/08/12 12:28:50;;;;;;;;;;;17.50;65.80;;;;;;5072002;28;20090;-71
2021/08/12 12:31:22;;;;;;;108.57;65.95;;;17.40;65.80;;;;;;5071460;28;19912;-72
2021/08/12 12:34:01;;;;;;;102.70;63.10;;;17.40;65.70;;;;;;5071269;28;20062;-72
2021/08/12 12:36:33;;;;;;;112.10;64.88;;;17.40;65.60;;;;;;5069980;28;20024;-72
2021/08/12 12:39:01;;;;;;;104.72;63.88;;;17.40;65.60;;;;;;5071744;28;20082;-71
2021/08/12 12:41:28;;;;;;;106.97;63.80;;;17.40;65.60;;;;;;5070877;28;20036;-72
2021/08/12 12:44:17;;;;;;;111.57;65.50;;;17.30;65.70;;;;;;5072346;28;20047;-73
2021/08/12 12:46:44;;;;;;;101.07;63.42;;;17.30;65.80;;;;;;5071248;28;20033;-69
2021/08/12 12:49:29;;;;;;;99.53;63.00;;;17.30;65.90;;;;;;5072754;28;20035;-74
2021/08/12 12:52:08;;;;;;;102.90;60.90;;;17.30;66.00;;;;;;5075275;28;20532;-72
2021/08/12 12:54:37;;;;;;;101.20;61.67;;;17.30;66.20;;;;;;5071333;28;20426;-71
2021/08/12 12:57:31;;;;;;;103.13;60.83;;;17.30;66.40;;;;;;5072257;28;20024;-71
2021/08/12 13:00:00;;;;;;;95.68;58.95;;;17.20;66.50;;;;;;5069302;28;20120;-71
2021/08/12 13:02:27;;;;;;;98.75;58.53;;;17.20;66.70;;;;;;5071478;28;20020;-70